sensor_id;sensor_type;location;lat;lon;timestamp;P1;durP1;ratioP1;P2;durP2;ratioP2
23001;SDS011;11667;51.706;4.856;2022-10-22T16:52:13;243.20;;;174.10;;
23001;SDS011;11667;51.706;4.856;2022-10-22T16:54:42;239.88;;;175.53;;
23001;SDS011;11667;51.706;4.856;2022-10-22T16:57:13;237.60;;;181.30;;
23001;SDS011;11667;51.706;4.856;2022-10-22T16:59:42;234.47;;;174.32;;
23001;SDS011;11667;51.706;4.856;2022-10-22T17:02:12;238.25;;;175.38;;
23001;SDS011;11667;51.706;4.856;2022-10-22T17:04:41;235.85;;;172.22;;
23001;SDS011;11667;51.706;4.856;2022-10-22T17:07:10;230.80;;;170.87;;
23001;SDS011;11667;51.706;4.856;2022-10-22T17:12:05;234.90;;;169.72;;
23001;SDS011;11667;51.706;4.856;2022-10-22T17:14:34;229.53;;;164.95;;
23001;SDS011;11667;51.706;4.856;2022-10-22T17:17:04;230.80;;;167.57;;
23001;SDS011;11667;51.706;4.856;2022-10-22T17:19:33;227.30;;;163.90;;
23001;SDS011;11667;51.706;4.856;2022-10-22T17:22:04;227.78;;;166.43;;
23001;SDS011;11667;51.706;4.856;2022-10-22T17:24:33;222.10;;;164.25;;
23001;SDS011;11667;51.706;4.856;2022-10-22T17:27:03;224.65;;;164.18;;
23001;SDS011;11667;51.706;4.856;2022-10-22T17:29:32;220.70;;;158.27;;
23001;SDS011;11667;51.706;4.856;2022-10-22T17:32:03;221.60;;;159.20;;
23001;SDS011;11667;51.706;4.856;2022-10-22T17:34:32;222.70;;;160.48;;
23001;SDS011;11667;51.706;4.856;2022-10-22T17:37:01;221.90;;;158.65;;
23001;SDS011;11667;51.706;4.856;2022-10-22T17:39:31;218.05;;;157.75;;
23001;SDS011;11667;51.706;4.856;2022-10-22T17:42:00;216.50;;;157.97;;
23001;SDS011;11667;51.706;4.856;2022-10-22T17:44:29;214.80;;;156.72;;
23001;SDS011;11667;51.706;4.856;2022-10-22T17:46:58;213.40;;;155.43;;
23001;SDS011;11667;51.706;4.856;2022-10-22T17:49:28;211.57;;;154.42;;
23001;SDS011;11667;51.706;4.856;2022-10-22T17:51:57;217.18;;;157.78;;
23001;SDS011;11667;51.706;4.856;2022-10-22T17:54:27;213.45;;;154.25;;
23001;SDS011;11667;51.706;4.856;2022-10-22T17:56:56;216.08;;;153.68;;
23001;SDS011;11667;51.706;4.856;2022-10-22T17:59:26;208.40;;;151.22;;
23001;SDS011;11667;51.706;4.856;2022-10-22T18:01:55;206.57;;;151.72;;
23001;SDS011;11667;51.706;4.856;2022-10-22T18:04:27;207.92;;;151.07;;
23001;SDS011;11667;51.706;4.856;2022-10-22T18:06:57;211.22;;;150.93;;
23001;SDS011;11667;51.706;4.856;2022-10-22T18:09:27;207.80;;;150.65;;
23001;SDS011;11667;51.706;4.856;2022-10-22T18:11:56;207.32;;;151.53;;
23001;SDS011;11667;51.706;4.856;2022-10-22T18:14:25;207.07;;;149.90;;
23001;SDS011;11667;51.706;4.856;2022-10-22T18:16:55;207.72;;;150.97;;
23001;SDS011;11667;51.706;4.856;2022-10-22T18:19:24;210.63;;;151.90;;
23001;SDS011;11667;51.706;4.856;2022-10-22T18:21:53;207.98;;;150.20;;
23001;SDS011;11667;51.706;4.856;2022-10-22T18:24:23;206.47;;;151.05;;
23001;SDS011;11667;51.706;4.856;2022-10-22T18:26:52;209.43;;;153.20;;
23001;SDS011;11667;51.706;4.856;2022-10-22T18:29:21;206.53;;;151.72;;
23001;SDS011;11667;51.706;4.856;2022-10-22T18:31:51;204.40;;;151.87;;
23001;SDS011;11667;51.706;4.856;2022-10-22T18:34:20;210.75;;;152.53;;
23001;SDS011;11667;51.706;4.856;2022-10-22T18:36:50;208.50;;;152.17;;
23001;SDS011;11667;51.706;4.856;2022-10-22T18:39:20;214.02;;;153.20;;
23001;SDS011;11667;51.706;4.856;2022-10-22T18:41:49;207.15;;;153.38;;
23001;SDS011;11667;51.706;4.856;2022-10-22T18:44:18;212.60;;;154.85;;
23001;SDS011;11667;51.706;4.856;2022-10-22T18:46:49;213.72;;;156.25;;
23001;SDS011;11667;51.706;4.856;2022-10-22T18:49:18;218.33;;;157.52;;
23001;SDS011;11667;51.706;4.856;2022-10-22T18:51:48;212.60;;;154.72;;
23001;SDS011;11667;51.706;4.856;2022-10-22T18:54:20;216.40;;;157.22;;
23001;SDS011;11667;51.706;4.856;2022-10-22T18:56:51;213.65;;;156.35;;
23001;SDS011;11667;51.706;4.856;2022-10-22T18:59:25;215.50;;;156.10;;
23001;SDS011;11667;51.706;4.856;2022-10-22T19:01:55;214.90;;;158.97;;
23001;SDS011;11667;51.706;4.856;2022-10-22T19:04:31;217.45;;;157.70;;
23001;SDS011;11667;51.706;4.856;2022-10-22T19:06:58;217.93;;;157.78;;
23001;SDS011;11667;51.706;4.856;2022-10-22T19:09:28;221.00;;;161.00;;
23001;SDS011;11667;51.706;4.856;2022-10-22T19:11:57;222.35;;;162.53;;
23001;SDS011;11667;51.706;4.856;2022-10-22T19:14:27;222.75;;;163.80;;
23001;SDS011;11667;51.706;4.856;2022-10-22T19:16:56;219.97;;;163.30;;
23001;SDS011;11667;51.706;4.856;2022-10-22T19:19:26;225.07;;;164.62;;
23001;SDS011;11667;51.706;4.856;2022-10-22T19:21:55;226.22;;;165.05;;
23001;SDS011;11667;51.706;4.856;2022-10-22T19:24:26;227.70;;;170.40;;
23001;SDS011;11667;51.706;4.856;2022-10-22T19:26:56;233.47;;;171.72;;
23001;SDS011;11667;51.706;4.856;2022-10-22T19:29:25;231.07;;;171.82;;
23001;SDS011;11667;51.706;4.856;2022-10-22T19:31:55;232.43;;;173.35;;
23001;SDS011;11667;51.706;4.856;2022-10-22T19:34:24;234.40;;;172.78;;
23001;SDS011;11667;51.706;4.856;2022-10-22T19:36:53;233.68;;;174.68;;
23001;SDS011;11667;51.706;4.856;2022-10-22T19:39:23;236.95;;;176.57;;
23001;SDS011;11667;51.706;4.856;2022-10-22T19:41:52;237.75;;;177.82;;
23001;SDS011;11667;51.706;4.856;2022-10-22T19:44:21;243.63;;;182.47;;
23001;SDS011;11667;51.706;4.856;2022-10-22T19:46:51;242.97;;;183.60;;
23001;SDS011;11667;51.706;4.856;2022-10-22T19:49:20;247.70;;;185.18;;
23001;SDS011;11667;51.706;4.856;2022-10-22T19:51:50;247.12;;;186.50;;
23001;SDS011;11667;51.706;4.856;2022-10-22T19:54:19;248.95;;;187.95;;
23001;SDS011;11667;51.706;4.856;2022-10-22T19:56:49;252.20;;;191.77;;
23001;SDS011;11667;51.706;4.856;2022-10-22T19:59:18;254.40;;;194.85;;
23001;SDS011;11667;51.706;4.856;2022-10-22T20:01:49;252.72;;;192.32;;
23001;SDS011;11667;51.706;4.856;2022-10-22T20:04:18;255.45;;;193.57;;
23001;SDS011;11667;51.706;4.856;2022-10-22T20:06:49;252.32;;;193.95;;
23001;SDS011;11667;51.706;4.856;2022-10-22T20:09:18;257.05;;;196.07;;
23001;SDS011;11667;51.706;4.856;2022-10-22T20:11:48;255.45;;;196.15;;
23001;SDS011;11667;51.706;4.856;2022-10-22T20:14:17;256.38;;;196.80;;
23001;SDS011;11667;51.706;4.856;2022-10-22T20:16:47;259.02;;;201.88;;
23001;SDS011;11667;51.706;4.856;2022-10-22T20:19:16;263.18;;;202.10;;
23001;SDS011;11667;51.706;4.856;2022-10-22T20:21:46;262.15;;;201.60;;
23001;SDS011;11667;51.706;4.856;2022-10-22T20:24:17;263.50;;;202.72;;
23001;SDS011;11667;51.706;4.856;2022-10-22T20:26:46;266.57;;;206.72;;
23001;SDS011;11667;51.706;4.856;2022-10-22T20:29:15;264.63;;;203.22;;
23001;SDS011;11667;51.706;4.856;2022-10-22T20:31:45;265.18;;;205.90;;
23001;SDS011;11667;51.706;4.856;2022-10-22T20:34:15;262.95;;;204.72;;
23001;SDS011;11667;51.706;4.856;2022-10-22T20:36:44;261.40;;;202.68;;
23001;SDS011;11667;51.706;4.856;2022-10-22T20:39:14;264.05;;;203.60;;
23001;SDS011;11667;51.706;4.856;2022-10-22T20:41:43;265.57;;;203.20;;
23001;SDS011;11667;51.706;4.856;2022-10-22T20:44:14;261.02;;;204.00;;
23001;SDS011;11667;51.706;4.856;2022-10-22T20:46:44;263.60;;;205.57;;
23001;SDS011;11667;51.706;4.856;2022-10-22T20:49:14;258.85;;;201.95;;
23001;SDS011;11667;51.706;4.856;2022-10-22T20:51:44;256.68;;;200.38;;
23001;SDS011;11667;51.706;4.856;2022-10-22T20:54:13;260.15;;;202.40;;
23001;SDS011;11667;51.706;4.856;2022-10-22T20:56:43;259.23;;;199.87;;
23001;SDS011;11667;51.706;4.856;2022-10-22T20:59:14;250.10;;;194.30;;
23001;SDS011;11667;51.706;4.856;2022-10-22T21:01:49;252.22;;;195.25;;
23001;SDS011;11667;51.706;4.856;2022-10-22T21:04:16;253.50;;;195.20;;
23001;SDS011;11667;51.706;4.856;2022-10-22T21:06:46;253.35;;;194.93;;
23001;SDS011;11667;51.706;4.856;2022-10-22T21:09:17;252.20;;;191.73;;
23001;SDS011;11667;51.706;4.856;2022-10-22T21:11:46;247.15;;;190.43;;
23001;SDS011;11667;51.706;4.856;2022-10-22T21:14:17;246.05;;;188.22;;
23001;SDS011;11667;51.706;4.856;2022-10-22T21:16:49;246.45;;;189.28;;
23001;SDS011;11667;51.706;4.856;2022-10-22T21:19:19;244.55;;;186.70;;
23001;SDS011;11667;51.706;4.856;2022-10-22T21:21:49;242.07;;;186.97;;
23001;SDS011;11667;51.706;4.856;2022-10-22T21:24:18;241.68;;;186.90;;
23001;SDS011;11667;51.706;4.856;2022-10-22T21:26:49;235.38;;;180.97;;
23001;SDS011;11667;51.706;4.856;2022-10-22T21:29:19;239.72;;;182.93;;
23001;SDS011;11667;51.706;4.856;2022-10-22T21:31:49;237.25;;;181.05;;
23001;SDS011;11667;51.706;4.856;2022-10-22T21:34:20;234.00;;;177.93;;
23001;SDS011;11667;51.706;4.856;2022-10-22T21:36:49;235.17;;;179.57;;
23001;SDS011;11667;51.706;4.856;2022-10-22T21:39:19;236.20;;;179.93;;
23001;SDS011;11667;51.706;4.856;2022-10-22T21:41:48;232.00;;;178.38;;
23001;SDS011;11667;51.706;4.856;2022-10-22T21:44:18;232.35;;;176.65;;
23001;SDS011;11667;51.706;4.856;2022-10-22T21:46:47;232.70;;;178.50;;
23001;SDS011;11667;51.706;4.856;2022-10-22T21:49:16;236.85;;;179.80;;
23001;SDS011;11667;51.706;4.856;2022-10-22T21:51:46;234.60;;;179.90;;
23001;SDS011;11667;51.706;4.856;2022-10-22T21:54:15;235.02;;;183.30;;
23001;SDS011;11667;51.706;4.856;2022-10-22T21:56:45;238.95;;;182.72;;
23001;SDS011;11667;51.706;4.856;2022-10-22T21:59:15;237.45;;;183.57;;
23001;SDS011;11667;51.706;4.856;2022-10-22T22:01:44;236.75;;;181.07;;
23001;SDS011;11667;51.706;4.856;2022-10-22T22:04:14;240.55;;;186.00;;
23001;SDS011;11667;51.706;4.856;2022-10-22T22:06:43;241.73;;;185.22;;
23001;SDS011;11667;51.706;4.856;2022-10-22T22:09:12;244.20;;;188.75;;
23001;SDS011;11667;51.706;4.856;2022-10-22T22:11:42;245.73;;;190.92;;
23001;SDS011;11667;51.706;4.856;2022-10-22T22:14:11;247.75;;;189.60;;
23001;SDS011;11667;51.706;4.856;2022-10-22T22:16:42;247.05;;;193.72;;
23001;SDS011;11667;51.706;4.856;2022-10-22T22:19:12;247.33;;;193.25;;
23001;SDS011;11667;51.706;4.856;2022-10-22T22:21:41;253.58;;;196.95;;
23001;SDS011;11667;51.706;4.856;2022-10-22T22:24:11;252.85;;;197.05;;
23001;SDS011;11667;51.706;4.856;2022-10-22T22:26:41;252.32;;;199.02;;
23001;SDS011;11667;51.706;4.856;2022-10-22T22:29:10;255.22;;;200.47;;
23001;SDS011;11667;51.706;4.856;2022-10-22T22:31:40;259.55;;;202.35;;
23001;SDS011;11667;51.706;4.856;2022-10-22T22:34:11;264.35;;;205.85;;
23001;SDS011;11667;51.706;4.856;2022-10-22T22:36:43;264.23;;;206.65;;
23001;SDS011;11667;51.706;4.856;2022-10-22T22:39:14;269.23;;;209.03;;
23001;SDS011;11667;51.706;4.856;2022-10-22T22:41:46;263.45;;;206.13;;
23001;SDS011;11667;51.706;4.856;2022-10-22T22:44:15;263.48;;;206.25;;
23001;SDS011;11667;51.706;4.856;2022-10-22T22:46:45;269.15;;;212.90;;
23001;SDS011;11667;51.706;4.856;2022-10-22T22:49:14;270.57;;;211.97;;
23001;SDS011;11667;51.706;4.856;2022-10-22T22:51:44;266.75;;;211.18;;
23001;SDS011;11667;51.706;4.856;2022-10-22T22:54:13;273.23;;;212.45;;
23001;SDS011;11667;51.706;4.856;2022-10-22T22:56:42;268.90;;;210.32;;
23001;SDS011;11667;51.706;4.856;2022-10-22T22:59:12;270.97;;;216.12;;
23001;SDS011;11667;51.706;4.856;2022-10-22T23:01:41;267.48;;;210.10;;
23001;SDS011;11667;51.706;4.856;2022-10-22T23:04:13;272.07;;;209.30;;
23001;SDS011;11667;51.706;4.856;2022-10-22T23:06:47;269.65;;;211.28;;
23001;SDS011;11667;51.706;4.856;2022-10-22T23:09:17;265.62;;;209.32;;
23001;SDS011;11667;51.706;4.856;2022-10-22T23:11:47;271.05;;;212.35;;
23001;SDS011;11667;51.706;4.856;2022-10-22T23:14:18;271.68;;;211.57;;
23001;SDS011;11667;51.706;4.856;2022-10-22T23:16:48;264.27;;;208.50;;
23001;SDS011;11667;51.706;4.856;2022-10-22T23:19:19;265.50;;;208.75;;
23001;SDS011;11667;51.706;4.856;2022-10-22T23:21:51;268.82;;;211.82;;
23001;SDS011;11667;51.706;4.856;2022-10-22T23:24:23;270.05;;;211.20;;
23001;SDS011;11667;51.706;4.856;2022-10-22T23:26:54;267.50;;;208.23;;
23001;SDS011;11667;51.706;4.856;2022-10-22T23:29:25;264.50;;;207.80;;
23001;SDS011;11667;51.706;4.856;2022-10-22T23:31:57;262.65;;;204.45;;
23001;SDS011;11667;51.706;4.856;2022-10-22T23:34:29;258.85;;;203.02;;
23001;SDS011;11667;51.706;4.856;2022-10-22T23:36:59;260.93;;;204.47;;
23001;SDS011;11667;51.706;4.856;2022-10-22T23:39:29;261.45;;;203.32;;
23001;SDS011;11667;51.706;4.856;2022-10-22T23:41:58;257.55;;;201.05;;
23001;SDS011;11667;51.706;4.856;2022-10-22T23:44:27;257.23;;;200.35;;
23001;SDS011;11667;51.706;4.856;2022-10-22T23:46:57;254.40;;;199.75;;
23001;SDS011;11667;51.706;4.856;2022-10-22T23:49:26;254.32;;;199.85;;
23001;SDS011;11667;51.706;4.856;2022-10-22T23:51:56;250.45;;;197.28;;
23001;SDS011;11667;51.706;4.856;2022-10-22T23:54:25;250.03;;;192.95;;
23001;SDS011;11667;51.706;4.856;2022-10-22T23:56:54;249.45;;;192.87;;
23001;SDS011;11667;51.706;4.856;2022-10-22T23:59:24;244.15;;;189.65;;
